createdAt,value
2022-07-31T00:00:27.494Z,96766.13
2022-07-31T00:02:54.395Z,96762.56
2022-07-31T00:05:21.708Z,96766.25
2022-07-31T00:07:49.032Z,96766.63
2022-07-31T00:10:15.921Z,96762.94
2022-07-31T00:12:42.868Z,96764.56
2022-07-31T00:15:12.532Z,96770.22
2022-07-31T00:17:40.667Z,96763.63
2022-07-31T00:20:09.560Z,96761.56
2022-07-31T00:22:36.501Z,96751.59
2022-07-31T00:25:05.912Z,96753.66
2022-07-31T00:27:32.873Z,96756.56
2022-07-31T00:29:59.717Z,96752.03
2022-07-31T00:32:26.693Z,96752.53
2022-07-31T00:34:53.797Z,96754.13
2022-07-31T00:37:20.649Z,96753.44
2022-07-31T00:39:47.500Z,96752.31
2022-07-31T00:42:23.087Z,96749.53
2022-07-31T00:44:51.130Z,96750.00
2022-07-31T00:47:23.835Z,96757.53
2022-07-31T00:49:52.561Z,96748.63
2022-07-31T00:52:20.281Z,96749.91
2022-07-31T00:54:47.288Z,96750.03
2022-07-31T00:57:15.343Z,96750.13
2022-07-31T00:59:42.271Z,96753.50
2022-07-31T01:02:09.586Z,96749.22
2022-07-31T01:04:36.884Z,96750.59
2022-07-31T01:07:08.597Z,96752.13
2022-07-31T01:09:35.685Z,96760.31
2022-07-31T01:12:12.993Z,96749.56
2022-07-31T01:14:50.050Z,96748.28
2022-07-31T01:17:19.543Z,96746.81
2022-07-31T01:19:48.983Z,96753.16
2022-07-31T01:22:46.245Z,96743.06
2022-07-31T01:25:53.853Z,96741.34
2022-07-31T01:29:00.740Z,96751.16
2022-07-31T01:31:44.245Z,96748.56
2022-07-31T01:34:42.707Z,96750.88
2022-07-31T01:37:20.736Z,96747.28
2022-07-31T01:39:55.167Z,96751.78
2022-07-31T01:42:24.754Z,96747.41
2022-07-31T01:44:58.692Z,96749.03
2022-07-31T01:47:27.786Z,96744.75
2022-07-31T01:49:56.332Z,96743.69
2022-07-31T01:52:26.267Z,96745.28
2022-07-31T01:54:56.210Z,96740.44
2022-07-31T01:57:25.839Z,96743.81
2022-07-31T01:59:57.094Z,96747.59
2022-07-31T02:02:25.529Z,96738.31
2022-07-31T02:04:53.825Z,96747.47
2022-07-31T02:07:22.264Z,96741.91
2022-07-31T02:09:52.030Z,96748.84
2022-07-31T02:12:33.451Z,96745.72
2022-07-31T02:15:04.549Z,96747.78
2022-07-31T02:17:32.106Z,96741.88
2022-07-31T02:20:00.756Z,96751.63
2022-07-31T02:22:29.422Z,96742.66
2022-07-31T02:24:56.365Z,96750.41
2022-07-31T02:27:58.389Z,96747.34
2022-07-31T02:30:12.492Z,96745.75
2022-07-31T02:32:40.990Z,96743.63
2022-07-31T02:35:09.157Z,96742.94
2022-07-31T02:37:38.918Z,96743.97
2022-07-31T02:40:08.331Z,96753.44
2022-07-31T02:42:36.025Z,96747.31
2022-07-31T02:45:03.930Z,96741.19
2022-07-31T02:47:33.081Z,96746.41
2022-07-31T02:50:00.213Z,96749.44
2022-07-31T02:52:27.201Z,96740.72
2022-07-31T02:54:54.945Z,96745.91
2022-07-31T02:57:21.828Z,96748.22
2022-07-31T02:59:48.917Z,96740.25
2022-07-31T03:02:16.051Z,96738.88
2022-07-31T03:04:44.029Z,96735.63
2022-07-31T03:07:11.066Z,96737.47
2022-07-31T03:09:38.101Z,96738.53
2022-07-31T03:12:05.786Z,96739.72
2022-07-31T03:14:34.384Z,96735.66
2022-07-31T03:17:03.159Z,96735.78
2022-07-31T03:19:30.819Z,96742.84
2022-07-31T03:21:59.432Z,96740.91
2022-07-31T03:24:27.189Z,96741.28
2022-07-31T03:26:54.069Z,96742.06
2022-07-31T03:29:41.893Z,96740.78
2022-07-31T03:32:07.914Z,96740.56
2022-07-31T03:34:34.764Z,96746.47
2022-07-31T03:37:01.657Z,96748.88
2022-07-31T03:39:28.506Z,96743.69
2022-07-31T03:41:57.613Z,96733.72
2022-07-31T03:44:25.892Z,96733.13
2022-07-31T03:46:53.306Z,96736.97
2022-07-31T03:49:21.713Z,96741.69
2022-07-31T03:51:48.641Z,96746.22
2022-07-31T03:54:15.560Z,96740.91
2022-07-31T03:56:47.009Z,96739.22
2022-07-31T03:59:17.640Z,96735.59
2022-07-31T04:01:57.911Z,96735.75
2022-07-31T04:04:32.344Z,96737.47
2022-07-31T04:06:59.150Z,96734.47
2022-07-31T04:09:26.049Z,96733.94
2022-07-31T04:11:52.858Z,96746.44
2022-07-31T04:14:19.752Z,96746.31
2022-07-31T04:16:46.636Z,96747.47
2022-07-31T04:19:13.581Z,96753.47
2022-07-31T04:21:40.524Z,96750.50
2022-07-31T04:24:07.752Z,96756.50
2022-07-31T04:26:34.619Z,96756.50
2022-07-31T04:29:01.511Z,96762.28
2022-07-31T04:31:28.332Z,96758.56
2022-07-31T04:33:57.015Z,96763.56
2022-07-31T04:36:30.149Z,96764.13
2022-07-31T04:38:59.795Z,96764.56
2022-07-31T04:41:27.280Z,96765.53
2022-07-31T04:43:54.426Z,96775.22
2022-07-31T04:46:21.311Z,96768.03
2022-07-31T04:48:49.180Z,96765.38
2022-07-31T04:51:18.858Z,96772.34
2022-07-31T04:53:50.568Z,96774.03
2022-07-31T04:56:35.863Z,96779.06
2022-07-31T04:59:07.530Z,96772.16
2022-07-31T05:01:34.729Z,96778.03
2022-07-31T05:04:02.058Z,96769.06
2022-07-31T05:06:44.348Z,96769.75
2022-07-31T05:09:19.253Z,96756.16
2022-07-31T05:11:48.148Z,96761.00
2022-07-31T05:14:17.115Z,96756.06
2022-07-31T05:16:44.611Z,96755.25
2022-07-31T05:19:14.530Z,96760.50
2022-07-31T05:21:53.258Z,96756.34
2022-07-31T05:24:32.754Z,96759.88
2022-07-31T05:27:02.804Z,96748.25
2022-07-31T05:29:30.754Z,96762.94
2022-07-31T05:31:59.635Z,96756.38
2022-07-31T05:34:30.045Z,96754.03
2022-07-31T05:37:01.699Z,96757.47
2022-07-31T05:39:29.697Z,96759.72
2022-07-31T05:41:57.119Z,96756.53
2022-07-31T05:44:24.659Z,96761.19
2022-07-31T05:49:18.779Z,96765.13
2022-07-31T05:51:46.748Z,96766.72
2022-07-31T05:54:14.238Z,96766.84
2022-07-31T05:56:42.704Z,96769.72
2022-07-31T05:59:09.824Z,96775.59
2022-07-31T06:01:37.123Z,96774.50
2022-07-31T06:04:04.075Z,96773.41
2022-07-31T06:06:31.067Z,96777.84
2022-07-31T06:09:03.552Z,96775.28
2022-07-31T06:11:31.078Z,96775.66
2022-07-31T06:13:58.428Z,96779.75
2022-07-31T06:16:25.293Z,96772.19
2022-07-31T06:18:52.441Z,96774.72
2022-07-31T06:23:45.165Z,96777.03
2022-07-31T06:26:12.365Z,96777.94
2022-07-31T06:28:48.019Z,96774.41
2022-07-31T06:31:21.605Z,96773.38
2022-07-31T06:33:49.640Z,96778.63
2022-07-31T06:36:18.063Z,96775.28
2022-07-31T06:38:45.870Z,96776.97
2022-07-31T06:41:32.945Z,96776.69
2022-07-31T06:43:59.878Z,96769.72
2022-07-31T06:46:26.954Z,96778.53
2022-07-31T06:48:53.829Z,96774.34
2022-07-31T06:51:30.707Z,96779.16
2022-07-31T06:54:02.252Z,96775.41
2022-07-31T06:56:33.468Z,96778.28
2022-07-31T06:59:01.368Z,96773.28
2022-07-31T07:01:29.178Z,96770.72
2022-07-31T07:03:56.566Z,96775.63
2022-07-31T07:06:24.377Z,96783.25
2022-07-31T07:08:51.881Z,96777.50
2022-07-31T07:11:19.557Z,96787.69
2022-07-31T07:13:47.048Z,96794.75
2022-07-31T07:16:14.976Z,96787.34
2022-07-31T07:18:43.028Z,96787.63
2022-07-31T07:21:10.171Z,96783.38
2022-07-31T07:23:37.316Z,96779.91
2022-07-31T07:26:05.083Z,96779.31
2022-07-31T07:28:32.251Z,96785.22
2022-07-31T07:30:59.784Z,96780.94
2022-07-31T07:33:39.759Z,96780.38
2022-07-31T07:36:07.278Z,96778.31
2022-07-31T07:38:34.119Z,96770.25
2022-07-31T07:41:02.780Z,96779.34
2022-07-31T07:43:29.609Z,96783.16
2022-07-31T07:45:56.497Z,96782.81
2022-07-31T07:48:23.345Z,96781.97
2022-07-31T07:50:50.224Z,96779.28
2022-07-31T07:53:17.071Z,96780.91
2022-07-31T07:55:43.894Z,96772.69
2022-07-31T07:58:12.148Z,96772.00
2022-07-31T08:00:39.878Z,96767.00
2022-07-31T08:03:48.390Z,96752.84
2022-07-31T08:05:53.921Z,96756.88
2022-07-31T08:08:20.762Z,96761.16
2022-07-31T08:10:47.612Z,96755.13
2022-07-31T08:13:14.668Z,96757.00
2022-07-31T08:15:41.597Z,96754.25
2022-07-31T08:18:08.678Z,96754.22
2022-07-31T08:20:38.249Z,96750.72
2022-07-31T08:23:05.269Z,96751.69
2022-07-31T08:25:32.324Z,96751.66
2022-07-31T08:27:59.181Z,96749.00
2022-07-31T08:30:30.874Z,96752.53
2022-07-31T08:32:58.048Z,96742.94
2022-07-31T08:35:26.094Z,96748.59
2022-07-31T08:38:04.101Z,96751.44
2022-07-31T08:40:42.828Z,96741.28
2022-07-31T08:44:00.722Z,96741.09
2022-07-31T08:46:02.840Z,96743.84
2022-07-31T08:48:33.266Z,96743.81
2022-07-31T08:51:03.773Z,96740.16
2022-07-31T08:53:36.373Z,96736.47
2022-07-31T08:56:06.199Z,96740.84
2022-07-31T08:58:38.741Z,96743.47
2022-07-31T09:01:08.113Z,96735.44
2022-07-31T09:03:36.080Z,96735.72
2022-07-31T09:06:04.556Z,96741.44
2022-07-31T09:08:33.568Z,96733.63
2022-07-31T09:11:06.794Z,96731.28
2022-07-31T09:13:37.576Z,96727.75
2022-07-31T09:16:05.445Z,96725.13
2022-07-31T09:18:32.712Z,96718.13
2022-07-31T09:21:03.449Z,96726.00
2022-07-31T09:23:32.128Z,96713.44
2022-07-31T09:26:05.781Z,96719.53
2022-07-31T09:28:34.735Z,96713.78
2022-07-31T09:31:02.777Z,96705.25
2022-07-31T09:33:30.449Z,96707.03
2022-07-31T09:35:59.701Z,96698.88
2022-07-31T09:38:36.685Z,96699.91
2022-07-31T09:41:55.865Z,96693.22
2022-07-31T09:44:10.265Z,96697.41
2022-07-31T09:46:48.228Z,96693.63
2022-07-31T09:49:15.843Z,96696.88
2022-07-31T09:51:46.907Z,96687.94
2022-07-31T09:54:24.937Z,96687.50
2022-07-31T09:56:52.360Z,96685.09
2022-07-31T09:59:19.743Z,96683.59
2022-07-31T10:01:49.179Z,96690.72
2022-07-31T10:04:21.739Z,96682.13
2022-07-31T10:06:51.900Z,96691.97
2022-07-31T10:09:21.262Z,96685.59
2022-07-31T10:11:50.199Z,96681.59
2022-07-31T10:14:29.203Z,96684.25
2022-07-31T10:17:00.503Z,96680.28
2022-07-31T10:19:32.456Z,96668.41
2022-07-31T10:22:04.001Z,96664.34
2022-07-31T10:24:41.358Z,96658.47
2022-07-31T10:27:10.073Z,96666.25
2022-07-31T10:29:39.346Z,96662.06
2022-07-31T10:32:08.181Z,96666.88
2022-07-31T10:34:35.656Z,96651.94
2022-07-31T10:37:11.102Z,96650.47
2022-07-31T10:40:06.138Z,96652.97
2022-07-31T10:43:03.237Z,96651.03
2022-07-31T10:45:31.766Z,96641.47
2022-07-31T10:48:03.004Z,96640.13
2022-07-31T10:50:30.515Z,96636.31
2022-07-31T10:53:12.983Z,96640.19
2022-07-31T10:55:40.138Z,96632.75
2022-07-31T10:58:15.959Z,96638.69
2022-07-31T11:00:43.825Z,96629.91
2022-07-31T11:03:14.659Z,96638.31
2022-07-31T11:06:02.241Z,96627.81
2022-07-31T11:08:54.712Z,96626.13
2022-07-31T11:11:36.806Z,96624.28
2022-07-31T11:14:03.832Z,96620.72
2022-07-31T11:16:30.724Z,96624.50
2022-07-31T11:19:16.069Z,96616.09
2022-07-31T11:21:42.984Z,96614.47
2022-07-31T11:24:14.181Z,96616.06
2022-07-31T11:26:59.258Z,96609.47
2022-07-31T11:30:00.318Z,96619.50
2022-07-31T11:32:25.350Z,96614.69
2022-07-31T11:34:55.790Z,96615.59
2022-07-31T11:37:37.499Z,96608.22
2022-07-31T11:40:14.577Z,96611.16
2022-07-31T11:42:59.825Z,96612.91
2022-07-31T11:45:33.321Z,96608.91
2022-07-31T11:48:13.098Z,96610.13
2022-07-31T11:50:42.101Z,96603.59
2022-07-31T11:53:09.001Z,96596.47
2022-07-31T11:55:57.705Z,96596.97
2022-07-31T11:58:27.634Z,96609.78
2022-07-31T12:01:03.254Z,96608.25
2022-07-31T12:03:38.070Z,96611.13
2022-07-31T12:06:07.514Z,96608.59
2022-07-31T12:08:35.499Z,96603.19
2022-07-31T12:11:05.142Z,96603.44
2022-07-31T12:13:32.532Z,96599.47
2022-07-31T12:16:10.422Z,96601.75
2022-07-31T12:18:59.343Z,96609.31
2022-07-31T12:21:40.489Z,96601.75
2022-07-31T12:24:14.899Z,96600.50
2022-07-31T12:26:54.699Z,96593.75
2022-07-31T12:29:34.555Z,96593.91
2022-07-31T12:32:02.278Z,96587.88
2022-07-31T12:34:38.476Z,96582.03
2022-07-31T12:37:05.707Z,96586.72
2022-07-31T12:40:00.222Z,96586.59
2022-07-31T12:42:40.624Z,96588.22
2022-07-31T12:45:17.933Z,96583.81
2022-07-31T12:47:51.919Z,96580.81
2022-07-31T12:50:25.465Z,96582.66
2022-07-31T12:52:53.944Z,96581.09
2022-07-31T12:55:21.082Z,96582.44
2022-07-31T12:57:51.237Z,96573.09
2022-07-31T13:00:22.566Z,96574.44
2022-07-31T13:02:50.863Z,96574.66
2022-07-31T13:05:18.004Z,96573.09
2022-07-31T13:07:44.898Z,96574.44
2022-07-31T13:10:20.288Z,96572.94
2022-07-31T13:12:51.264Z,96555.09
2022-07-31T13:15:19.989Z,96552.59
2022-07-31T13:17:50.292Z,96540.31
2022-07-31T13:20:18.493Z,96546.88
2022-07-31T13:22:45.425Z,96533.78
2022-07-31T13:25:12.719Z,96534.72
2022-07-31T13:27:39.636Z,96540.91
2022-07-31T13:30:09.864Z,96547.69
2022-07-31T13:32:36.925Z,96535.38
2022-07-31T13:35:24.302Z,96533.81
2022-07-31T13:37:53.776Z,96534.75
2022-07-31T13:40:40.648Z,96535.06
2022-07-31T13:43:07.555Z,96527.88
2022-07-31T13:45:34.458Z,96521.56
2022-07-31T13:48:04.379Z,96523.44
2022-07-31T13:50:37.169Z,96530.75
2022-07-31T13:53:04.755Z,96527.13
2022-07-31T13:55:32.065Z,96534.69
2022-07-31T13:57:59.378Z,96524.19
2022-07-31T14:00:29.611Z,96524.97
2022-07-31T14:02:56.976Z,96518.38
2022-07-31T14:05:26.396Z,96526.28
2022-07-31T14:07:54.855Z,96517.34
2022-07-31T14:10:22.589Z,96514.44
2022-07-31T14:12:49.927Z,96519.94
2022-07-31T14:15:18.142Z,96507.38
2022-07-31T14:17:45.521Z,96503.13
2022-07-31T14:20:13.006Z,96505.00
2022-07-31T14:22:40.094Z,96507.59
2022-07-31T14:25:07.363Z,96501.34
2022-07-31T14:27:38.509Z,96510.44
2022-07-31T14:30:09.990Z,96509.97
2022-07-31T14:32:36.941Z,96508.94
2022-07-31T14:35:08.382Z,96505.28
2022-07-31T14:37:36.454Z,96511.41
2022-07-31T14:40:05.818Z,96511.53
2022-07-31T14:42:33.059Z,96498.81
2022-07-31T14:45:00.100Z,96501.44
2022-07-31T14:47:27.071Z,96504.28
2022-07-31T14:50:06.739Z,96499.28
2022-07-31T14:52:37.913Z,96496.28
2022-07-31T14:55:05.700Z,96498.44
2022-07-31T14:57:32.572Z,96499.91
2022-07-31T14:59:59.606Z,96494.63
2022-07-31T15:02:27.207Z,96495.47
2022-07-31T15:04:54.565Z,96495.03
2022-07-31T15:07:41.296Z,96492.66
2022-07-31T15:10:11.014Z,96495.75
2022-07-31T15:12:38.747Z,96496.09
2022-07-31T15:15:07.740Z,96493.53
2022-07-31T15:17:34.623Z,96493.88
2022-07-31T15:20:01.473Z,96488.72
2022-07-31T15:22:28.464Z,96477.47
2022-07-31T15:24:55.351Z,96479.06
2022-07-31T15:27:22.294Z,96472.31
2022-07-31T15:30:05.764Z,96477.00
2022-07-31T15:32:36.506Z,96470.88
2022-07-31T15:35:06.054Z,96465.59
2022-07-31T15:37:41.370Z,96462.41
2022-07-31T15:40:11.297Z,96454.00
2022-07-31T15:42:41.716Z,96453.50
2022-07-31T15:45:12.348Z,96451.25
2022-07-31T15:47:39.764Z,96446.41
2022-07-31T15:50:09.680Z,96448.06
2022-07-31T15:52:36.877Z,96449.00
2022-07-31T15:55:06.111Z,96452.31
2022-07-31T15:57:33.254Z,96449.88
2022-07-31T16:00:00.470Z,96451.28
2022-07-31T16:02:27.319Z,96458.88
2022-07-31T16:04:56.585Z,96462.53
2022-07-31T16:08:30.535Z,96457.41
2022-07-31T16:10:17.954Z,96458.84
2022-07-31T16:12:46.280Z,96457.72
2022-07-31T16:15:14.525Z,96450.84
2022-07-31T16:17:41.981Z,96461.00
2022-07-31T16:20:20.749Z,96454.41
2022-07-31T16:22:58.246Z,96445.03
2022-07-31T16:25:26.649Z,96442.38
2022-07-31T16:27:54.158Z,96442.38
2022-07-31T16:30:21.757Z,96441.00
2022-07-31T16:32:49.394Z,96445.94
2022-07-31T16:35:16.229Z,96433.25
2022-07-31T16:37:52.165Z,96432.06
2022-07-31T16:40:30.342Z,96434.78
2022-07-31T16:43:50.091Z,96434.16
2022-07-31T16:45:51.797Z,96430.03
2022-07-31T16:48:18.902Z,96418.75
2022-07-31T16:50:53.044Z,96428.31
2022-07-31T16:54:14.835Z,96427.66
2022-07-31T16:56:13.521Z,96422.31
2022-07-31T16:58:40.586Z,96417.50
2022-07-31T17:01:57.854Z,96426.59
2022-07-31T17:04:01.610Z,96419.88
2022-07-31T17:06:37.272Z,96424.41
2022-07-31T17:09:17.405Z,96428.81
2022-07-31T17:11:47.555Z,96426.97
2022-07-31T17:14:15.931Z,96426.03
2022-07-31T17:16:47.053Z,96428.66
2022-07-31T17:19:42.934Z,96435.06
2022-07-31T17:22:05.412Z,96424.84
2022-07-31T17:24:34.781Z,96428.69
2022-07-31T17:27:04.746Z,96425.50
2022-07-31T17:29:32.002Z,96439.53
2022-07-31T17:31:58.855Z,96435.16
2022-07-31T17:34:25.884Z,96431.81
2022-07-31T17:36:52.757Z,96441.69
2022-07-31T17:39:19.650Z,96433.38
2022-07-31T17:41:46.569Z,96432.63
2022-07-31T17:44:14.793Z,96436.56
2022-07-31T17:46:48.137Z,96437.34
2022-07-31T17:49:19.578Z,96430.50
2022-07-31T17:51:59.598Z,96449.72
2022-07-31T17:54:28.641Z,96439.31
2022-07-31T17:56:55.645Z,96439.56
2022-07-31T17:59:23.173Z,96436.66
2022-07-31T18:01:52.273Z,96444.56
2022-07-31T18:04:21.020Z,96439.78
2022-07-31T18:06:51.424Z,96441.88
2022-07-31T18:09:23.202Z,96450.72
2022-07-31T18:11:51.765Z,96449.00
2022-07-31T18:14:19.161Z,96449.75
2022-07-31T18:16:47.506Z,96446.50
2022-07-31T18:19:15.201Z,96450.94
2022-07-31T18:21:42.215Z,96453.97
2022-07-31T18:24:09.147Z,96444.38
2022-07-31T18:26:37.307Z,96444.56
2022-07-31T18:29:05.021Z,96451.81
2022-07-31T18:31:35.338Z,96445.59
2022-07-31T18:34:05.222Z,96451.69
2022-07-31T18:36:33.743Z,96448.59
2022-07-31T18:39:01.575Z,96451.56
2022-07-31T18:41:28.824Z,96452.28
2022-07-31T18:43:55.990Z,96454.94
2022-07-31T18:46:24.677Z,96447.69
2022-07-31T18:48:56.682Z,96451.47
2022-07-31T18:51:28.751Z,96449.81
2022-07-31T18:53:56.375Z,96445.91
2022-07-31T18:56:25.133Z,96448.09
2022-07-31T18:58:53.337Z,96457.13
2022-07-31T19:01:21.156Z,96453.50
2022-07-31T19:03:48.448Z,96462.38
2022-07-31T19:06:15.583Z,96461.41
2022-07-31T19:08:42.496Z,96455.34
2022-07-31T19:11:09.548Z,96465.00
2022-07-31T19:13:36.389Z,96456.16
2022-07-31T19:16:05.012Z,96467.84
2022-07-31T19:18:32.860Z,96464.16
2022-07-31T19:21:23.412Z,96462.56
2022-07-31T19:23:48.345Z,96472.91
2022-07-31T19:26:16.095Z,96476.72
2022-07-31T19:28:43.376Z,96467.09
2022-07-31T19:31:13.085Z,96469.97
2022-07-31T19:33:40.173Z,96475.63
2022-07-31T19:36:07.699Z,96482.88
2022-07-31T19:38:38.570Z,96477.03
2022-07-31T19:41:05.986Z,96475.69
2022-07-31T19:43:33.211Z,96472.78
2022-07-31T19:46:11.812Z,96471.75
2022-07-31T19:48:45.469Z,96476.53
2022-07-31T19:51:15.434Z,96476.31
2022-07-31T19:53:43.623Z,96479.38
2022-07-31T19:56:15.673Z,96481.06
2022-07-31T19:58:47.045Z,96482.16
2022-07-31T20:01:14.946Z,96478.38
2022-07-31T20:03:42.146Z,96470.38
2022-07-31T20:06:09.166Z,96484.28
2022-07-31T20:08:36.943Z,96485.69
2022-07-31T20:11:05.289Z,96476.59
2022-07-31T20:13:34.798Z,96475.84
2022-07-31T20:16:02.195Z,96470.41
2022-07-31T20:18:30.369Z,96474.13
2022-07-31T20:21:03.450Z,96469.31
2022-07-31T20:23:33.853Z,96460.38
2022-07-31T20:26:02.014Z,96458.50
2022-07-31T20:28:29.091Z,96468.44
2022-07-31T20:30:56.097Z,96473.22
2022-07-31T20:33:23.015Z,96474.03
2022-07-31T20:35:50.624Z,96464.94
2022-07-31T20:38:22.483Z,96468.19
2022-07-31T20:40:54.713Z,96463.59
2022-07-31T20:43:27.756Z,96466.88
2022-07-31T20:45:57.886Z,96473.06
2022-07-31T20:48:31.438Z,96461.28
2022-07-31T20:51:01.132Z,96462.31
2022-07-31T20:53:29.281Z,96462.91
2022-07-31T20:55:56.754Z,96457.25
2022-07-31T20:58:24.817Z,96458.38
2022-07-31T21:00:53.051Z,96464.06
2022-07-31T21:03:20.598Z,96465.44
2022-07-31T21:05:48.176Z,96463.56
2022-07-31T21:08:15.825Z,96463.09
2022-07-31T21:10:42.734Z,96456.66
2022-07-31T21:13:09.734Z,96455.63
2022-07-31T21:15:43.411Z,96454.00
2022-07-31T21:18:18.174Z,96451.88
2022-07-31T21:20:49.790Z,96445.50
2022-07-31T21:23:18.000Z,96452.53
2022-07-31T21:25:45.240Z,96451.50
2022-07-31T21:28:12.823Z,96450.97
2022-07-31T21:30:40.997Z,96453.13
2022-07-31T21:33:08.818Z,96447.81
2022-07-31T21:35:37.334Z,96449.97
2022-07-31T21:38:05.839Z,96451.06
2022-07-31T21:40:38.727Z,96443.59
2022-07-31T21:43:06.026Z,96448.41
2022-07-31T21:45:41.895Z,96447.84
2022-07-31T21:48:25.058Z,96447.09
2022-07-31T21:50:54.887Z,96448.97
2022-07-31T21:53:22.279Z,96450.59
2022-07-31T21:55:49.447Z,96457.03
2022-07-31T21:58:17.106Z,96451.13
2022-07-31T22:00:44.686Z,96451.91
2022-07-31T22:03:11.686Z,96459.41
2022-07-31T22:05:57.296Z,96458.13
2022-07-31T22:08:24.173Z,96444.69
2022-07-31T22:10:52.085Z,96454.88
2022-07-31T22:13:19.575Z,96454.63
2022-07-31T22:15:51.352Z,96450.06
2022-07-31T22:18:28.972Z,96446.88
2022-07-31T22:20:56.677Z,96458.13
2022-07-31T22:23:23.846Z,96452.75
2022-07-31T22:25:51.081Z,96450.09
2022-07-31T22:28:21.166Z,96453.81
2022-07-31T22:30:48.506Z,96459.72
2022-07-31T22:33:15.657Z,96450.06
2022-07-31T22:35:43.349Z,96450.63
2022-07-31T22:38:13.507Z,96447.91
2022-07-31T22:40:40.490Z,96457.00
2022-07-31T22:44:10.351Z,96452.72
2022-07-31T22:46:00.161Z,96458.63
2022-07-31T22:48:28.031Z,96450.03
2022-07-31T22:50:55.978Z,96452.72
2022-07-31T22:53:23.857Z,96453.00
2022-07-31T22:55:53.684Z,96459.19
2022-07-31T22:58:20.929Z,96447.94
2022-07-31T23:00:49.194Z,96454.13
2022-07-31T23:03:17.666Z,96451.94
2022-07-31T23:06:27.959Z,96453.25
2022-07-31T23:08:31.437Z,96443.34
2022-07-31T23:10:58.241Z,96452.50
2022-07-31T23:13:25.132Z,96454.88
2022-07-31T23:15:51.946Z,96446.84
2022-07-31T23:18:18.801Z,96447.91
2022-07-31T23:20:45.636Z,96451.66
2022-07-31T23:23:12.500Z,96450.06
2022-07-31T23:25:39.336Z,96442.53
2022-07-31T23:28:06.251Z,96447.91
2022-07-31T23:30:33.089Z,96450.06
2022-07-31T23:32:59.925Z,96447.34
2022-07-31T23:35:26.776Z,96446.31
2022-07-31T23:37:53.670Z,96451.13
2022-07-31T23:40:20.500Z,96447.09
2022-07-31T23:42:48.854Z,96446.84
2022-07-31T23:45:15.869Z,96446.84
2022-07-31T23:47:45.955Z,96444.72
2022-07-31T23:50:14.717Z,96444.97
2022-07-31T23:52:42.794Z,96442.03
2022-07-31T23:55:09.882Z,96443.94
2022-07-31T23:57:37.069Z,96444.72
